Time;durP1;ratioP1;P1;durP2;ratioP2;P2;SDS_P1;SDS_P2;PMS_P1;PMS_P2;Temp;Humidity;BMP_temperature;BMP_pressure;BME280_temperature;BME280_humidity;BME280_pressure;Samples;Min_cycle;Max_cycle;Signal;HPM_P1;HPM_P2
2022/05/09 00:01:48;;;;;;;;;20.75;15.25;;;;;18.41;48.32;101813.47;5039264;28;46163;-55
2022/05/09 00:04:14;;;;;;;;;19.50;17.00;;;;;18.44;48.19;101821.31;5057164;28;45670;-50
2022/05/09 00:06:39;;;;;;;;;15.75;14.00;;;;;18.45;48.01;101822.19;5057517;28;45337;-48
2022/05/09 00:09:05;;;;;;;;;14.75;14.75;;;;;18.42;48.32;101826.28;5057543;28;45552;-50
2022/05/09 00:11:31;;;;;;;;;17.75;15.25;;;;;18.46;47.93;101827.47;5057369;28;46106;-50
2022/05/09 00:13:57;;;;;;;;;16.60;14.40;;;;;18.43;48.04;101823.22;5055928;28;45437;-50
2022/05/09 00:16:22;;;;;;;;;19.75;16.50;;;;;18.41;47.85;101819.03;5057176;28;45342;-53
2022/05/09 00:18:48;;;;;;;;;12.00;12.00;;;;;18.37;47.95;101821.41;5057416;28;45818;-48
2022/05/09 00:21:13;;;;;;;;;17.25;14.25;;;;;18.43;47.83;101827.97;5056877;28;45879;-48
2022/05/09 00:23:39;;;;;;;;;16.75;14.25;;;;;18.47;47.95;101828.34;5055595;28;45263;-53
2022/05/09 00:26:04;;;;;;;;;17.25;16.00;;;;;18.31;47.69;101799.31;5057513;28;45298;-49
2022/05/09 00:28:30;;;;;;;;;13.75;13.75;;;;;18.44;47.72;101818.53;5057093;28;45572;-48
2022/05/09 00:30:55;;;;;;;;;16.25;15.25;;;;;18.46;47.47;101821.91;5057006;28;46478;-52
2022/05/09 00:33:21;;;;;;;;;12.25;12.25;;;;;18.31;47.86;101819.63;5056933;28;45339;-50
2022/05/09 00:35:47;;;;;;;;;14.40;13.80;;;;;18.13;47.70;101795.50;5044852;28;45394;-47
2022/05/09 00:38:13;;;;;;;;;12.50;12.00;;;;;18.19;47.99;101816.78;5069434;28;45544;-48
2022/05/09 00:40:39;;;;;;;;;15.75;14.00;;;;;18.13;48.06;101823.28;5034501;28;46502;-49
2022/05/09 00:43:24;;;;;;;;;17.00;16.00;;;;;18.08;48.20;101810.13;5036373;28;45481;-51
2022/05/09 00:45:50;;;;;;;;;11.80;11.80;;;;;17.90;48.21;101786.00;5034873;28;45402;-49
2022/05/09 00:48:15;;;;;;;;;14.00;12.25;;;;;18.11;48.24;101815.22;5069285;28;45645;-50
2022/05/09 00:50:41;;;;;;;;;13.25;11.75;;;;;17.92;48.22;101794.09;5036103;28;45830;-52
2022/05/09 00:53:06;;;;;;;;;13.25;13.25;;;;;17.76;48.13;101793.66;5036543;28;45386;-47
2022/05/09 00:55:37;;;;;;;;;12.75;10.25;;;;;17.93;48.34;101827.16;5051872;28;45426;-52
2022/05/09 00:58:25;;;;;;;;;13.00;13.00;;;;;17.84;48.48;101823.03;5051239;28;45369;-52
2022/05/09 01:00:51;;;;;;;;;10.60;9.60;;;;;17.69;48.35;101818.75;5062113;27;46106;-53
2022/05/09 01:03:24;;;;;;;;;14.60;13.40;;;;;17.61;48.99;101819.91;5051582;28;45308;-50
2022/05/09 01:05:53;;;;;;;;;12.00;12.00;;;;;17.48;48.66;101795.09;5018851;28;45552;-54
2022/05/09 01:08:19;;;;;;;;;12.80;12.60;;;;;17.57;48.21;101787.31;5068391;28;45513;-52
2022/05/09 01:10:45;;;;;;;;;11.40;10.80;;;;;17.35;48.26;101757.28;5034616;28;46274;-49
2022/05/09 01:13:12;;;;;;;;;16.25;15.00;;;;;17.72;48.10;101815.50;5051636;28;45296;-53
2022/05/09 01:15:39;;;;;;;;;10.40;10.40;;;;;17.44;48.42;101778.06;5036152;28;45267;-54
2022/05/09 01:18:06;;;;;;;;;13.20;11.40;;;;;17.57;48.08;101806.72;5051627;28;45521;-49
2022/05/09 01:20:32;;;;;;;;;11.20;9.60;;;;;17.45;48.03;101787.25;5034355;28;46834;-53
2022/05/09 01:22:57;;;;;;;;;12.25;11.00;;;;;17.70;48.05;101816.81;5035661;28;45521;-50
2022/05/09 01:25:23;;;;;;;;;16.75;13.00;;;;;17.55;47.97;101793.09;5036158;28;45512;-48
2022/05/09 01:27:49;;;;;;;;;13.00;10.25;;;;;17.45;47.91;101778.94;5068995;28;45704;-50
2022/05/09 01:30:38;;;;;;;;;9.60;9.60;;;;;17.65;47.91;101819.47;5034014;28;45563;-50
2022/05/09 01:33:11;;;;;;;;;9.80;9.40;;;;;17.59;47.84;101818.44;5067938;28;45315;-50
2022/05/09 01:35:45;;;;;;;;;15.20;14.00;;;;;17.42;47.60;101790.47;5039168;27;45499;-49
2022/05/09 01:38:22;;;;;;;;;12.40;9.20;;;;;17.51;47.37;101819.63;5018436;28;45287;-48
2022/05/09 01:40:47;;;;;;;;;9.80;9.60;;;;;17.48;47.68;101822.84;5018151;28;45433;-51
2022/05/09 01:43:13;;;;;;;;;8.00;6.75;;;;;17.44;47.54;101814.16;5035358;28;45446;-53
2022/05/09 01:45:38;;;;;;;;;9.25;7.00;;;;;17.40;47.93;101803.75;5034357;28;45439;-52
2022/05/09 01:50:48;;;;;;;;;9.20;8.60;;;;;17.38;47.53;101816.97;5035022;28;45739;-49
2022/05/09 01:53:13;;;;;;;;;7.75;7.75;;;;;17.39;47.44;101805.66;5035077;28;45255;-49
2022/05/09 01:55:39;;;;;;;;;7.00;6.50;;;;;17.27;46.99;101804.72;5034579;28;45445;-51
2022/05/09 01:58:05;;;;;;;;;9.00;9.00;;;;;17.30;47.02;101810.66;5035540;28;45651;-54
2022/05/09 02:00:32;;;;;;;;;11.80;8.60;;;;;17.05;47.37;101769.16;5034819;28;45401;-49
2022/05/09 02:02:59;;;;;;;;;7.60;7.00;;;;;17.18;47.31;101812.53;5035659;28;45310;-51
2022/05/09 02:05:25;;;;;;;;;5.60;5.00;;;;;17.16;47.51;101814.69;5035284;28;45354;-49
2022/05/09 02:07:51;;;;;;;;;11.40;9.40;;;;;17.09;47.57;101814.75;5036156;28;45812;-50
2022/05/09 02:10:17;;;;;;;;;8.00;6.75;;;;;17.02;47.59;101805.66;5035076;28;46411;-51
2022/05/09 02:12:42;;;;;;;;;7.75;6.50;;;;;17.11;47.32;101811.75;5035662;28;45335;-54
2022/05/09 02:15:08;;;;;;;;;7.50;7.50;;;;;17.18;47.31;101812.53;5035545;28;45409;-54
2022/05/09 02:17:34;;;;;;;;;7.75;7.75;;;;;17.17;47.04;101806.13;5035383;28;45351;-54
2022/05/09 02:20:00;;;;;;;;;10.50;8.00;;;;;17.18;47.38;101805.06;5035070;28;45499;-48
2022/05/09 02:22:26;;;;;;;;;5.25;5.25;;;;;17.20;47.39;101807.59;5034751;28;45402;-48
2022/05/09 02:24:52;;;;;;;;;10.00;7.00;;;;;17.17;47.16;101808.91;5034978;28;45449;-48
2022/05/09 02:27:18;;;;;;;;;7.50;7.50;;;;;17.20;47.04;101805.66;5034537;28;45598;-50
2022/05/09 02:29:43;;;;;;;;;8.75;7.75;;;;;17.05;47.06;101785.78;5034893;28;46537;-51
2022/05/09 02:32:09;;;;;;;;;6.00;5.00;;;;;17.10;47.41;101799.81;5035307;28;45316;-52
2022/05/09 02:34:35;;;;;;;;;7.75;7.25;;;;;17.05;47.08;101803.28;5034846;28;45449;-52
2022/05/09 02:37:00;;;;;;;;;9.75;6.75;;;;;16.43;47.72;101717.31;5035262;28;45219;-48
2022/05/09 02:39:26;;;;;;;;;7.50;6.00;;;;;16.88;47.81;101799.38;5034804;28;45744;-50
2022/05/09 02:41:52;;;;;;;;;6.25;5.00;;;;;16.74;48.05;101796.72;5035123;28;45307;-50
2022/05/09 02:44:17;;;;;;;;;10.00;6.50;;;;;16.85;48.04;101809.00;5035411;28;45778;-50
2022/05/09 02:46:43;;;;;;;;;6.50;6.50;;;;;16.93;47.77;101802.31;5050045;28;45679;-48
2022/05/09 02:49:10;;;;;;;;;6.40;6.00;;;;;16.94;47.53;101802.09;5033724;28;46044;-49
2022/05/09 02:51:35;;;;;;;;;7.60;6.60;;;;;16.96;47.54;101792.69;5034469;28;45439;-51
2022/05/09 02:54:01;;;;;;;;;5.25;5.25;;;;;16.94;47.26;101798.47;5035114;28;45369;-52
2022/05/09 02:56:26;;;;;;;;;5.00;5.00;;;;;16.91;47.33;101793.34;5033610;28;45492;-48
2022/05/09 02:58:52;;;;;;;;;7.00;7.00;;;;;16.93;47.20;101794.00;5032926;28;46245;-48
2022/05/09 03:01:18;;;;;;;;;11.20;7.80;;;;;16.74;47.34;101757.06;5035013;28;45386;-47
2022/05/09 03:06:27;;;;;;;;;6.60;5.60;;;;;16.79;47.67;101783.03;5038805;28;45389;-48
2022/05/09 03:08:53;;;;;;;;;9.50;7.25;;;;;16.79;47.97;101776.63;5038159;28;46432;-48
2022/05/09 03:11:18;;;;;;;;;6.00;6.00;;;;;16.76;48.07;101790.97;5070874;28;45508;-51
2022/05/09 03:13:44;;;;;;;;;9.00;7.00;;;;;16.66;47.90;101781.22;5038106;28;45321;-52
2022/05/09 03:16:09;;;;;;;;;12.00;7.25;;;;;16.24;48.12;101733.88;5070945;28;45277;-51
2022/05/09 03:18:35;;;;;;;;;8.50;6.50;;;;;16.46;48.66;101794.41;5070513;28;48552;-51
2022/05/09 03:21:01;;;;;;;;;7.00;7.00;;;;;16.38;48.88;101790.00;5037325;28;45454;-51
2022/05/09 03:23:26;;;;;;;;;6.25;6.25;;;;;16.33;48.89;101787.06;5038027;28;45251;-48
2022/05/09 03:25:52;;;;;;;;;9.25;8.25;;;;;16.02;49.40;101745.34;5038378;28;45289;-49
2022/05/09 03:28:19;;;;;;;;;7.75;7.75;;;;;16.07;49.57;101773.19;5038025;28;45773;-51
2022/05/09 03:30:45;;;;;;;;;8.20;7.00;;;;;16.20;49.51;101785.25;5037900;28;45339;-52
2022/05/09 03:33:11;;;;;;;;;9.80;8.80;;;;;15.90;49.32;101749.88;5037970;28;45484;-50
2022/05/09 03:35:37;;;;;;;;;9.80;9.00;;;;;16.18;49.52;101779.94;5038247;28;45440;-51
2022/05/09 03:38:03;;;;;;;;;11.50;6.75;;;;;16.17;49.37;101786.53;5037444;28;45619;-49
2022/05/09 03:40:28;;;;;;;;;8.50;8.25;;;;;16.30;49.42;101785.59;5037798;28;45295;-50
2022/05/09 03:42:54;;;;;;;;;7.25;7.25;;;;;16.39;49.39;101777.88;5037791;28;45438;-47
2022/05/09 03:45:19;;;;;;;;;6.50;5.50;;;;;16.41;49.14;101789.56;5038267;28;45378;-51
2022/05/09 03:47:45;;;;;;;;;10.50;7.00;;;;;16.21;49.06;101754.56;5037287;28;46397;-52
2022/05/09 03:50:11;;;;;;;;;9.00;9.00;;;;;16.42;49.55;101793.19;5001401;28;45364;-52
2022/05/09 03:52:37;;;;;;;;;9.60;8.80;;;;;16.22;49.35;101766.50;5036442;28;45427;-52
2022/05/09 03:55:03;;;;;;;;;12.00;10.00;;;;;16.39;49.43;101784.22;5036375;28;45638;-48
2022/05/09 03:57:29;;;;;;;;;8.80;8.80;;;;;16.36;49.58;101784.69;5069831;28;46911;-47
2022/05/09 03:59:54;;;;;;;;;9.25;9.25;;;;;16.32;49.52;101775.13;5037168;28;45342;-48
2022/05/09 04:02:20;;;;;;;;;11.50;11.00;;;;;16.33;49.60;101796.22;5036020;28;45430;-49
2022/05/09 04:04:45;;;;;;;;;10.75;8.25;;;;;16.19;49.81;101778.88;5036374;28;45351;-50
2022/05/09 04:07:11;;;;;;;;;10.00;9.25;;;;;16.29;49.69;101800.53;5036707;28;45454;-48
2022/05/09 04:09:36;;;;;;;;;11.00;9.75;;;;;16.28;49.86;101792.44;5037533;28;45421;-48
2022/05/09 04:12:03;;;;;;;;;14.00;11.00;;;;;16.04;50.05;101762.56;5037145;28;45441;-50
2022/05/09 04:17:26;;;;;;;;;10.60;10.20;;;;;16.23;49.97;101785.63;5024150;28;45427;-51
2022/05/09 04:19:51;;;;;;;;;10.50;10.00;;;;;16.26;49.89;101784.34;5036930;28;45331;-49
2022/05/09 04:22:17;;;;;;;;;9.00;8.00;;;;;16.22;49.86;101788.66;5036969;28;45492;-49
2022/05/09 04:24:43;;;;;;;;;12.00;9.50;;;;;16.25;50.01;101793.72;5037144;28;45277;-50
2022/05/09 04:27:08;;;;;;;;;17.40;11.40;;;;;16.19;49.90;101789.09;5036827;28;45774;-47
2022/05/09 04:29:34;;;;;;;;;15.75;9.00;;;;;16.22;50.13;101789.50;5037044;28;45288;-51
2022/05/09 04:32:00;;;;;;;;;11.20;10.60;;;;;16.21;49.98;101792.47;5037119;28;45389;-51
2022/05/09 04:34:25;;;;;;;;;11.00;10.00;;;;;16.15;50.24;101780.38;5036807;28;45671;-52
2022/05/09 04:36:51;;;;;;;;;9.50;8.25;;;;;15.99;50.20;101754.94;5036463;28;46680;-49
2022/05/09 04:39:17;;;;;;;;;10.50;10.50;;;;;16.13;50.62;101785.31;5035349;28;45396;-49
2022/05/09 04:41:43;;;;;;;;;10.40;10.00;;;;;16.07;50.49;101775.94;5068818;28;45366;-49
2022/05/09 04:44:08;;;;;;;;;12.00;9.25;;;;;15.99;50.72;101781.78;5036975;28;45294;-51
2022/05/09 04:46:34;;;;;;;;;10.25;10.00;;;;;16.01;50.69;101779.63;5036095;28;45428;-52
2022/05/09 04:48:59;;;;;;;;;12.50;12.25;;;;;16.07;50.19;101784.25;5036417;28;45433;-52
2022/05/09 04:51:25;;;;;;;;;11.75;9.50;;;;;16.16;50.60;101786.78;5068839;28;45286;-50
2022/05/09 04:53:50;;;;;;;;;12.00;9.25;;;;;16.15;50.32;101776.75;5036998;28;45330;-48
2022/05/09 04:56:17;;;;;;;;;11.50;11.25;;;;;16.20;50.42;101786.09;5036631;28;45853;-47
2022/05/09 04:58:42;;;;;;;;;10.40;9.80;;;;;16.26;50.37;101785.22;5036090;28;45379;-48
2022/05/09 05:01:08;;;;;;;;;17.25;13.75;;;;;16.18;50.54;101776.31;5068898;28;45534;-51
2022/05/09 05:03:34;;;;;;;;;10.50;10.00;;;;;16.20;50.27;101785.25;5068866;28;45660;-53
2022/05/09 05:05:59;;;;;;;;;10.75;10.25;;;;;16.18;50.24;101787.41;5036609;28;46614;-53
2022/05/09 05:08:24;;;;;;;;;14.25;12.25;;;;;16.21;50.39;101782.25;5036210;28;45354;-50
2022/05/09 05:10:53;;;;;;;;;10.00;9.50;;;;;16.24;50.27;101786.50;5035471;28;45470;-48
2022/05/09 05:13:19;;;;;;;;;14.00;13.20;;;;;16.16;50.32;101784.00;5068440;28;45674;-49
2022/05/09 05:15:45;;;;;;;;;14.80;12.20;;;;;16.13;50.50;101779.78;5018167;28;47245;-50
2022/05/09 05:18:11;;;;;;;;;11.50;10.75;;;;;16.25;50.09;101793.72;5035047;28;45343;-47
2022/05/09 05:20:37;;;;;;;;;12.80;10.00;;;;;16.26;50.20;101787.13;5034909;28;45432;-47
2022/05/09 05:23:02;;;;;;;;;16.40;13.80;;;;;16.33;50.14;101799.00;5036468;28;45588;-49
2022/05/09 05:25:29;;;;;;;;;18.00;13.75;;;;;16.31;49.99;101791.97;5036031;28;45337;-50
2022/05/09 05:27:54;;;;;;;;;16.60;13.00;;;;;16.10;50.31;101761.69;5017982;28;45409;-52
2022/05/09 05:30:20;;;;;;;;;15.25;12.25;;;;;16.33;50.09;101792.63;5036546;28;45453;-50
2022/05/09 05:32:47;;;;;;;;;11.50;10.75;;;;;16.34;50.26;101800.69;4965354;28;45606;-46
2022/05/09 05:35:16;;;;;;;;;13.20;12.20;;;;;16.32;50.15;101790.94;5035342;28;46496;-51
2022/05/09 05:37:42;;;;;;;;;13.80;11.40;;;;;16.36;49.95;101800.47;5034224;28;45311;-48
2022/05/09 05:40:09;;;;;;;;;12.50;10.50;;;;;16.38;50.13;101799.16;5036441;28;45256;-52
2022/05/09 05:42:37;;;;;;;;;16.20;13.40;;;;;16.39;49.82;101800.84;5034770;28;45566;-49
2022/05/09 05:45:03;;;;;;;;;18.20;15.40;;;;;16.36;50.08;101794.91;5035704;28;46277;-49
2022/05/09 05:47:28;;;;;;;;;10.25;9.50;;;;;16.44;49.68;101804.88;5035981;28;45435;-52
2022/05/09 05:49:55;;;;;;;;;12.00;11.00;;;;;16.39;50.16;101802.81;5034787;28;45452;-48
2022/05/09 05:52:20;;;;;;;;;14.60;12.00;;;;;16.03;50.60;101740.63;5036204;28;45518;-55
2022/05/09 05:54:46;;;;;;;;;17.00;12.75;;;;;16.34;50.31;101795.13;5035916;28;46394;-49
2022/05/09 05:57:24;;;;;;;;;17.60;12.60;;;;;16.44;49.94;101794.63;5034744;28;45355;-50
2022/05/09 05:59:51;;;;;;;;;11.20;10.60;;;;;16.49;50.03;101794.81;5035147;28;45295;-48
2022/05/09 06:02:16;;;;;;;;;12.00;11.80;;;;;16.53;49.97;101798.84;5036103;28;45468;-48
2022/05/09 06:04:42;;;;;;;;;13.00;11.00;;;;;16.55;49.78;101804.16;5035472;28;46142;-50
2022/05/09 06:07:07;;;;;;;;;14.75;12.25;;;;;16.58;49.84;101800.94;5035517;28;45321;-52
2022/05/09 06:09:33;;;;;;;;;14.25;12.00;;;;;16.60;49.80;101800.72;5035704;28;45406;-54
2022/05/09 06:12:01;;;;;;;;;13.50;11.75;;;;;16.59;49.28;101807.31;5035590;28;45426;-48
2022/05/09 06:14:26;;;;;;;;;12.20;11.60;;;;;16.59;49.47;101810.94;5034205;28;45986;-50
2022/05/09 06:16:52;;;;;;;;;11.75;11.00;;;;;16.44;49.24;101785.50;5035025;28;45347;-48
2022/05/09 06:19:17;;;;;;;;;7.25;7.25;;;;;16.61;49.19;101816.25;5035553;28;45377;-47
2022/05/09 06:21:43;;;;;;;;;11.25;10.50;;;;;16.64;49.37;101813.88;5035648;28;45438;-53
2022/05/09 06:24:09;;;;;;;;;11.25;10.50;;;;;16.61;49.03;101808.81;5034815;28;46511;-53
2022/05/09 06:26:35;;;;;;;;;15.80;14.20;;;;;16.67;48.98;101818.94;5035267;28;45359;-54
2022/05/09 06:29:03;;;;;;;;;19.00;14.40;;;;;16.65;49.12;101809.19;5033571;28;45429;-51
2022/05/09 06:31:29;;;;;;;;;13.80;11.60;;;;;16.69;49.11;101817.91;5035640;28;45441;-52
2022/05/09 06:33:54;;;;;;;;;12.75;12.75;;;;;16.61;49.25;101813.47;5034964;28;45496;-52
2022/05/09 06:36:20;;;;;;;;;15.75;14.25;;;;;16.61;49.03;101807.94;5016424;28;45431;-53
2022/05/09 06:38:45;;;;;;;;;15.25;13.00;;;;;16.10;48.98;101725.69;5036336;28;45386;-49
2022/05/09 06:41:11;;;;;;;;;12.50;11.25;;;;;16.74;49.27;101818.91;5038834;28;45295;-50
2022/05/09 06:43:36;;;;;;;;;16.75;15.00;;;;;16.79;48.96;101821.00;5038587;28;45494;-53
2022/05/09 06:46:02;;;;;;;;;12.25;11.25;;;;;16.77;49.08;101815.66;5038509;28;45349;-52
2022/05/09 06:48:28;;;;;;;;;15.25;13.75;;;;;16.78;48.86;101827.63;5038701;28;45421;-49
2022/05/09 06:50:54;;;;;;;;;18.60;17.80;;;;;16.83;48.91;101827.78;5038856;28;45422;-48
2022/05/09 06:53:19;;;;;;;;;29.75;20.00;;;;;16.83;48.53;101838.88;5038292;28;45300;-48
2022/05/09 06:55:48;;;;;;;;;20.00;15.25;;;;;16.85;48.77;101830.34;5037086;28;45319;-50
2022/05/09 06:58:17;;;;;;;;;19.00;15.80;;;;;16.90;48.92;101836.03;5037151;28;45491;-47
2022/05/09 07:00:42;;;;;;;;;21.80;16.00;;;;;16.66;48.79;101799.81;5038005;28;45291;-52
2022/05/09 07:03:08;;;;;;;;;21.00;17.25;;;;;16.79;48.88;101812.66;5037178;28;45351;-48
2022/05/09 07:05:34;;;;;;;;;24.25;20.25;;;;;16.95;48.76;101822.34;5037993;28;45412;-51
2022/05/09 07:08:00;;;;;;;;;19.60;16.00;;;;;16.82;48.59;101803.06;5038385;28;45378;-50
2022/05/09 07:10:28;;;;;;;;;22.00;18.00;;;;;16.87;49.01;101817.91;5038012;28;45224;-54
2022/05/09 07:12:54;;;;;;;;;16.20;13.60;;;;;16.90;48.98;101831.34;5037872;28;46394;-50
2022/05/09 07:15:25;;;;;;;;;20.40;16.40;;;;;16.91;49.07;101829.41;5036712;28;45454;-56
2022/05/09 07:17:51;;;;;;;;;16.40;13.00;;;;;16.99;48.77;101839.34;5037201;28;45453;-49
2022/05/09 07:20:18;;;;;;;;;14.60;14.60;;;;;16.97;48.96;101822.94;5038152;28;45319;-50
2022/05/09 07:22:44;;;;;;;;;14.60;13.00;;;;;16.99;49.10;101825.50;5036835;28;45466;-49
2022/05/09 07:25:15;;;;;;;;;23.50;16.25;;;;;17.04;49.02;101828.47;5037699;28;45423;-48
2022/05/09 07:27:44;;;;;;;;;18.00;16.00;;;;;17.05;48.72;101813.53;5037951;28;45378;-52
2022/05/09 07:30:14;;;;;;;;;17.20;15.20;;;;;17.16;48.63;101826.63;5038583;28;45455;-54
2022/05/09 07:32:40;;;;;;;;;21.00;19.40;;;;;17.13;48.66;101812.38;5037882;28;46247;-49
2022/05/09 07:35:10;;;;;;;;;22.50;20.00;;;;;17.28;48.54;101828.66;5038099;28;45420;-50
2022/05/09 07:37:36;;;;;;;;;17.00;15.40;;;;;17.34;48.57;101827.69;5023382;28;45367;-54
2022/05/09 07:40:03;;;;;;;;;21.80;17.20;;;;;17.34;48.38;101836.03;5053818;28;45445;-51
2022/05/09 07:42:28;;;;;;;;;17.20;17.20;;;;;17.40;48.15;101831.50;5056241;28;47081;-49
2022/05/09 07:44:56;;;;;;;;;21.25;18.75;;;;;17.47;48.63;101830.31;5057610;28;45365;-53
2022/05/09 07:47:23;;;;;;;;;17.20;15.60;;;;;17.04;48.48;101751.66;5057866;28;45797;-51
2022/05/09 07:49:49;;;;;;;;;20.20;17.00;;;;;17.56;48.54;101818.91;5056266;28;45486;-51
2022/05/09 07:52:15;;;;;;;;;22.20;18.40;;;;;17.65;48.51;101822.22;5058031;28;45799;-50
2022/05/09 07:54:40;;;;;;;;;18.75;18.00;;;;;17.68;48.43;101811.50;4991103;27;45446;-51
2022/05/09 07:57:06;;;;;;;;;19.25;18.75;;;;;17.72;48.24;101815.50;5043226;28;45343;-52
2022/05/09 07:59:31;;;;;;;;;21.75;17.75;;;;;17.71;48.19;101827.69;5028399;28;45716;-53
2022/05/09 08:01:57;;;;;;;;;23.75;23.50;;;;;17.79;48.41;101815.41;5016086;28;45525;-50
2022/05/09 08:04:23;;;;;;;;;18.25;18.25;;;;;17.88;47.94;101819.53;5016450;28;45439;-55
2022/05/09 08:06:48;;;;;;;;;21.50;18.00;;;;;17.95;48.04;101819.47;5017703;28;45343;-52
2022/05/09 08:09:14;;;;;;;;;26.25;20.25;;;;;17.85;47.93;101788.63;5018051;28;45339;-47
2022/05/09 08:11:40;;;;;;;;;24.75;20.00;;;;;18.09;47.56;101817.34;5017240;28;45718;-52
2022/05/09 08:14:07;;;;;;;;;21.20;18.60;;;;;18.19;47.62;101827.06;5014849;28;45431;-56
2022/05/09 08:16:34;;;;;;;;;23.60;20.80;;;;;18.05;47.48;101793.03;5017366;28;45378;-52
2022/05/09 08:19:02;;;;;;;;;25.00;21.75;;;;;18.27;47.44;101822.03;5016135;28;45657;-55
2022/05/09 08:21:27;;;;;;;;;25.20;22.40;;;;;18.24;47.54;101805.81;5017595;28;46950;-53
2022/05/09 08:23:52;;;;;;;;;28.75;25.00;;;;;18.19;47.56;101797.34;5015677;28;45364;-54
2022/05/09 08:26:21;;;;;;;;;22.25;21.25;;;;;18.27;47.40;101804.50;5016157;28;45404;-55
2022/05/09 08:28:53;;;;;;;;;25.80;21.80;;;;;18.23;47.46;101798.56;5015776;28;45480;-55
2022/05/09 08:31:18;;;;;;;;;25.60;21.60;;;;;18.42;47.76;101823.50;5016908;28;47023;-50
2022/05/09 08:33:49;;;;;;;;;31.25;22.75;;;;;18.48;47.41;101818.91;5015801;28;45383;-49
2022/05/09 08:36:45;;;;;;;;;27.00;24.20;;;;;18.58;47.23;101823.88;5015788;28;45402;-53
2022/05/09 08:39:00;;;;;;;;;20.60;20.00;;;;;18.43;47.10;101789.88;5015572;28;45612;-53
2022/05/09 08:41:26;;;;;;;;;24.75;23.75;;;;;18.64;47.19;101811.78;5015562;28;46516;-48
2022/05/09 08:43:59;;;;;;;;;22.00;20.25;;;;;18.72;47.17;101825.34;4995361;28;45432;-47
2022/05/09 08:46:31;;;;;;;;;24.40;23.20;;;;;18.71;46.84;101809.75;5002911;28;45458;-52
2022/05/09 08:49:19;;;;;;;;;25.40;21.80;;;;;18.83;46.74;101818.06;5016106;28;46072;-49
2022/05/09 08:51:56;;;;;;;;;20.80;20.80;;;;;18.88;46.61;101820.16;5014215;28;47821;-53
2022/05/09 08:54:22;;;;;;;;;26.80;22.60;;;;;18.92;46.64;101815.78;5015478;28;45362;-55
2022/05/09 08:56:52;;;;;;;;;24.20;24.20;;;;;19.07;46.58;101820.91;5015630;28;45682;-50
2022/05/09 08:59:24;;;;;;;;;26.20;21.00;;;;;19.09;46.65;101804.78;5016565;28;45445;-52
2022/05/09 09:01:52;;;;;;;;;31.20;22.60;;;;;19.02;46.55;101779.91;4998450;28;46516;-49
2022/05/09 09:04:26;;;;;;;;;29.00;27.80;;;;;19.31;45.86;101810.56;5013823;28;45956;-49
2022/05/09 09:06:57;;;;;;;;;25.40;23.60;;;;;19.27;46.08;101786.25;5015541;28;45369;-48
2022/05/09 09:09:35;;;;;;;;;21.80;21.20;;;;;19.47;45.48;101805.31;5015351;28;45320;-51
2022/05/09 09:12:31;;;;;;;;;32.00;26.60;;;;;19.56;45.88;101817.78;5014763;28;45489;-53
2022/05/09 09:15:15;;;;;;;;;26.60;22.80;;;;;19.62;45.60;101811.22;5013657;28;46234;-55
2022/05/09 09:18:00;;;;;;;;;32.20;28.60;;;;;19.66;45.74;101806.00;5015468;28;45650;-52
2022/05/09 09:20:41;;;;;;;;;27.80;22.20;;;;;19.73;45.45;101808.63;5016129;28;45588;-49
2022/05/09 09:23:14;;;;;;;;;29.20;27.00;;;;;19.62;45.64;101765.81;5015885;28;45335;-51
2022/05/09 09:26:01;;;;;;;;;33.60;30.60;;;;;19.90;45.51;101792.81;5028377;28;45488;-49
2022/05/09 09:28:49;;;;;;;;;29.00;26.80;;;;;19.92;45.05;101779.47;5014649;28;45437;-52
2022/05/09 09:31:28;;;;;;;;;30.80;24.00;;;;;20.05;44.89;101791.44;5014970;28;45572;-53
2022/05/09 09:34:08;;;;;;;;;30.00;27.80;;;;;19.92;44.33;101764.72;5014909;28;46007;-53
2022/05/09 09:36:37;;;;;;;;;22.00;22.00;;;;;20.19;44.65;101789.19;5016148;28;45474;-54
2022/05/09 09:39:19;;;;;;;;;25.60;24.00;;;;;20.27;44.43;101797.13;4995523;28;45541;-52
2022/05/09 09:41:44;;;;;;;;;28.00;24.60;;;;;20.32;44.52;101799.16;5013889;28;45576;-55
2022/05/09 09:44:16;;;;;;;;;29.25;27.00;;;;;20.40;44.14;101798.75;5015904;28;46449;-53
2022/05/09 09:47:02;;;;;;;;;27.20;24.80;;;;;20.47;43.83;101800.50;4984417;28;45500;-56
2022/05/09 09:49:27;;;;;;;;;24.40;21.60;;;;;20.55;44.29;101800.09;5015602;28;45434;-51
2022/05/09 09:51:53;;;;;;;;;27.00;23.50;;;;;20.60;44.06;101797.41;5014911;28;45442;-50
2022/05/09 09:54:29;;;;;;;;;33.00;26.50;;;;;20.65;44.05;101800.25;5015686;28;45443;-49
2022/05/09 09:56:55;;;;;;;;;25.00;25.00;;;;;20.52;43.68;101765.22;5014383;28;45343;-53
2022/05/09 09:59:23;;;;;;;;;27.75;25.00;;;;;20.70;43.83;101791.97;5014359;28;45434;-48
2022/05/09 10:02:03;;;;;;;;;29.40;25.00;;;;;20.74;43.79;101792.31;5015255;28;45585;-54
2022/05/09 10:04:28;;;;;;;;;28.40;28.00;;;;;20.81;43.79;101780.97;5013916;28;46703;-51
2022/05/09 10:07:12;;;;;;;;;27.75;24.25;;;;;20.85;43.35;101784.97;5015232;28;45247;-49
2022/05/09 10:09:42;;;;;;;;;31.00;26.80;;;;;20.88;42.78;101778.88;5013339;28;45332;-48
2022/05/09 10:12:26;;;;;;;;;32.20;29.80;;;;;21.01;43.07;101782.41;4997014;28;45527;-49
2022/05/09 10:14:52;;;;;;;;;33.60;28.40;;;;;20.91;42.58;101747.66;5014135;28;45925;-51
2022/05/09 10:17:21;;;;;;;;;26.75;26.25;;;;;21.16;42.86;101776.16;5013204;28;45461;-50
2022/05/09 10:19:47;;;;;;;;;24.80;23.20;;;;;20.92;42.64;101715.03;5013699;28;45365;-50
2022/05/09 10:25:11;;;;;;;;;26.40;24.20;;;;;21.26;42.58;101763.22;5014493;28;45302;-54
2022/05/09 10:27:37;;;;;;;;;30.00;27.00;;;;;21.24;42.20;101748.66;5013498;28;46023;-51
2022/05/09 10:30:30;;;;;;;;;26.00;24.75;;;;;21.38;41.99;101763.06;5013442;28;45572;-48
2022/05/09 10:33:08;;;;;;;;;24.60;22.00;;;;;21.11;42.26;101705.25;5006765;28;45454;-56
2022/05/09 10:35:37;;;;;;;;;26.80;24.20;;;;;21.46;41.72;101735.78;4987072;28;45919;-49
2022/05/09 10:38:36;;;;;;;;;28.00;25.60;;;;;21.67;41.47;101753.63;5028022;28;45380;-50
2022/05/09 10:41:13;;;;;;;;;28.80;27.80;;;;;21.82;41.38;101752.13;5011234;28;45454;-49
2022/05/09 10:43:59;;;;;;;;;28.80;25.60;;;;;21.92;41.42;101755.00;5013548;28;45485;-52
2022/05/09 10:46:36;;;;;;;;;32.20;23.60;;;;;21.77;41.13;101722.19;5005082;28;45605;-51
2022/05/09 10:49:05;;;;;;;;;24.00;24.00;;;;;22.09;40.67;101752.09;5001614;28;45406;-55
2022/05/09 10:51:39;;;;;;;;;21.60;21.00;;;;;22.17;41.03;101745.19;5014704;28;45504;-48
2022/05/09 10:54:44;;;;;;;;;23.80;22.40;;;;;22.26;40.83;101734.34;4981437;28;45719;-50
2022/05/09 10:57:25;;;;;;;;;23.80;18.40;;;;;22.43;40.38;101746.25;4997992;28;46649;-50
2022/05/09 10:59:51;;;;;;;;;21.00;19.00;;;;;22.45;39.88;101740.34;4996611;28;45883;-52
2022/05/09 11:02:25;;;;;;;;;23.75;23.75;;;;;22.38;40.27;101706.19;5014074;28;45390;-52
2022/05/09 11:04:50;;;;;;;;;28.20;23.20;;;;;22.44;39.45;101708.78;5014464;28;45438;-56
2022/05/09 11:07:35;;;;;;;;;27.50;22.75;;;;;22.69;39.45;101740.00;5013436;28;45947;-49
2022/05/09 11:10:10;;;;;;;;;24.00;24.00;;;;;22.72;39.76;101740.31;5014349;28;45364;-50
2022/05/09 11:12:38;;;;;;;;;23.20;23.20;;;;;22.57;39.28;101701.06;5014815;28;45464;-51
2022/05/09 11:15:23;;;;;;;;;23.60;21.00;;;;;22.79;39.68;101734.44;5014913;28;45599;-51
2022/05/09 11:18:22;;;;;;;;;24.80;23.20;;;;;22.86;39.30;101737.88;5014404;28;46255;-50
2022/05/09 11:21:02;;;;;;;;;23.40;20.40;;;;;22.95;39.15;101740.16;5014530;28;45416;-52
2022/05/09 11:23:43;;;;;;;;;23.20;19.40;;;;;22.47;39.15;101648.66;5015470;28;45300;-51
2022/05/09 11:26:24;;;;;;;;;29.60;21.00;;;;;23.07;38.91;101723.97;5017705;28;45541;-50
2022/05/09 11:29:35;;;;;;;;;19.80;17.00;;;;;23.14;38.40;101718.97;5050064;28;46480;-47
2022/05/09 11:32:00;;;;;;;;;24.20;22.20;;;;;23.18;38.16;101719.25;4994199;28;45440;-54